< < Back
Terminal Aerodrome Forecast


Current Version              Previous Versions:   1  2  3  4  5  6  7  8  9  

Terminal Aerodrome Forecast

677
FTUS44 KMRX 192320
TAFTYS
TAF
KTYS 192320Z 2000/2024 01006KT P6SM BKN250
     FM200400 02003KT P6SM BKN100
     FM200900 02003KT 6SM -RA OVC050
     FM201200 03005KT P6SM OVC035
     FM201800 00000KT P6SM BKN200=



Latest METAR

329
SAUS80 KWBC 200800 RRA
MTRTYS
METAR KTYS 200753Z 00000KT 10SM SCT065 OVC080 03/M02 A3016 RMK AO2
SLP214 T00331017


USA.gov is the U.S. government's official web portal to all federal, state and local government web resources and services.